sensor_id;sensor_type;location;lat;lon;timestamp;pressure;altitude;pressure_sealevel;temperature;humidity
61573;BME280;47465;43.094;12.434;2023-06-26T00:00:55;98641.91;;;18.76;62.83
61573;BME280;47465;43.094;12.434;2023-06-26T00:03:22;98644.72;;;18.74;63.20
61573;BME280;47465;43.094;12.434;2023-06-26T00:05:48;98685.53;;;18.97;63.61
61573;BME280;47465;43.094;12.434;2023-06-26T00:08:16;98663.50;;;18.90;61.61
61573;BME280;47465;43.094;12.434;2023-06-26T00:10:42;98650.41;;;18.84;62.83
61573;BME280;47465;43.094;12.434;2023-06-26T00:13:08;98639.75;;;18.82;63.25
61573;BME280;47465;43.094;12.434;2023-06-26T00:15:34;98639.53;;;18.85;62.18
61573;BME280;47465;43.094;12.434;2023-06-26T00:18:00;98647.63;;;19.00;61.63
61573;BME280;47465;43.094;12.434;2023-06-26T00:20:27;98641.56;;;18.96;61.80
61573;BME280;47465;43.094;12.434;2023-06-26T00:22:53;98638.47;;;18.88;62.28
61573;BME280;47465;43.094;12.434;2023-06-26T00:25:21;98643.88;;;18.74;62.75
61573;BME280;47465;43.094;12.434;2023-06-26T00:27:48;98640.94;;;18.62;63.31
61573;BME280;47465;43.094;12.434;2023-06-26T00:30:14;98643.06;;;18.57;63.32
61573;BME280;47465;43.094;12.434;2023-06-26T00:32:41;98641.44;;;18.69;62.92
61573;BME280;47465;43.094;12.434;2023-06-26T00:35:07;98619.72;;;18.72;62.07
61573;BME280;47465;43.094;12.434;2023-06-26T00:37:34;98638.00;;;18.96;61.08
61573;BME280;47465;43.094;12.434;2023-06-26T00:40:00;98631.25;;;19.03;60.66
61573;BME280;47465;43.094;12.434;2023-06-26T00:42:26;98629.72;;;18.99;60.77
61573;BME280;47465;43.094;12.434;2023-06-26T00:44:52;98625.19;;;18.99;60.90
61573;BME280;47465;43.094;12.434;2023-06-26T00:47:18;98646.75;;;18.99;62.85
61573;BME280;47465;43.094;12.434;2023-06-26T00:49:44;98632.41;;;18.70;65.48
61573;BME280;47465;43.094;12.434;2023-06-26T00:52:10;98621.91;;;18.37;67.08
61573;BME280;47465;43.094;12.434;2023-06-26T00:54:38;98631.59;;;17.95;69.04
61573;BME280;47465;43.094;12.434;2023-06-26T00:57:04;98630.41;;;17.84;67.37
61573;BME280;47465;43.094;12.434;2023-06-26T00:59:30;98633.91;;;18.01;67.26
61573;BME280;47465;43.094;12.434;2023-06-26T01:01:56;98629.19;;;18.35;63.78
61573;BME280;47465;43.094;12.434;2023-06-26T01:04:22;98631.72;;;18.66;62.28
61573;BME280;47465;43.094;12.434;2023-06-26T01:06:54;98632.63;;;18.81;61.26
61573;BME280;47465;43.094;12.434;2023-06-26T01:09:21;98653.78;;;18.87;64.59
61573;BME280;47465;43.094;12.434;2023-06-26T01:11:50;98628.69;;;18.28;67.15
61573;BME280;47465;43.094;12.434;2023-06-26T01:14:16;98625.28;;;17.96;68.85
61573;BME280;47465;43.094;12.434;2023-06-26T01:16:43;98661.34;;;17.76;71.11
61573;BME280;47465;43.094;12.434;2023-06-26T01:19:18;98647.16;;;17.58;72.55
61573;BME280;47465;43.094;12.434;2023-06-26T01:21:52;98623.69;;;17.30;72.01
61573;BME280;47465;43.094;12.434;2023-06-26T01:24:23;98639.22;;;17.24;73.89
61573;BME280;47465;43.094;12.434;2023-06-26T01:26:54;98653.31;;;17.12;74.97
61573;BME280;47465;43.094;12.434;2023-06-26T01:29:22;98637.19;;;16.96;75.56
61573;BME280;47465;43.094;12.434;2023-06-26T01:31:50;98636.75;;;16.88;76.91
61573;BME280;47465;43.094;12.434;2023-06-26T01:34:17;98634.31;;;16.83;77.28
61573;BME280;47465;43.094;12.434;2023-06-26T01:36:44;98632.97;;;16.75;78.51
61573;BME280;47465;43.094;12.434;2023-06-26T01:39:10;98628.25;;;16.62;78.69
61573;BME280;47465;43.094;12.434;2023-06-26T01:41:36;98631.19;;;16.58;79.62
61573;BME280;47465;43.094;12.434;2023-06-26T01:44:15;98648.63;;;16.67;80.40
61573;BME280;47465;43.094;12.434;2023-06-26T01:46:52;98639.50;;;16.53;80.55
61573;BME280;47465;43.094;12.434;2023-06-26T01:49:25;98627.78;;;16.54;80.63
61573;BME280;47465;43.094;12.434;2023-06-26T01:51:58;98647.75;;;16.66;80.65
61573;BME280;47465;43.094;12.434;2023-06-26T01:54:30;98633.00;;;16.57;80.67
61573;BME280;47465;43.094;12.434;2023-06-26T01:57:00;98638.28;;;16.59;80.99
61573;BME280;47465;43.094;12.434;2023-06-26T01:59:29;98639.50;;;16.53;81.91
61573;BME280;47465;43.094;12.434;2023-06-26T02:01:57;98637.75;;;16.52;81.68
61573;BME280;47465;43.094;12.434;2023-06-26T02:04:23;98627.69;;;16.40;82.48
61573;BME280;47465;43.094;12.434;2023-06-26T02:06:49;98635.56;;;16.43;83.20
61573;BME280;47465;43.094;12.434;2023-06-26T02:09:15;98650.47;;;16.49;83.50
61573;BME280;47465;43.094;12.434;2023-06-26T02:11:41;98631.28;;;16.39;83.16
61573;BME280;47465;43.094;12.434;2023-06-26T02:14:07;98626.25;;;16.33;82.34
61573;BME280;47465;43.094;12.434;2023-06-26T02:16:36;98629.41;;;16.41;82.10
61573;BME280;47465;43.094;12.434;2023-06-26T02:19:02;98633.50;;;16.48;81.70
61573;BME280;47465;43.094;12.434;2023-06-26T02:21:28;98643.44;;;16.63;80.29
61573;BME280;47465;43.094;12.434;2023-06-26T02:23:54;98625.53;;;16.80;77.97
61573;BME280;47465;43.094;12.434;2023-06-26T02:26:19;98630.25;;;16.92;77.71
61573;BME280;47465;43.094;12.434;2023-06-26T02:28:46;98627.06;;;17.01;77.64
61573;BME280;47465;43.094;12.434;2023-06-26T02:31:12;98630.78;;;16.99;78.24
61573;BME280;47465;43.094;12.434;2023-06-26T02:33:41;98626.59;;;16.93;78.66
61573;BME280;47465;43.094;12.434;2023-06-26T02:36:07;98623.56;;;16.83;78.91
61573;BME280;47465;43.094;12.434;2023-06-26T02:38:33;98628.44;;;16.75;79.45
61573;BME280;47465;43.094;12.434;2023-06-26T02:40:59;98631.31;;;16.72;79.74
61573;BME280;47465;43.094;12.434;2023-06-26T02:43:25;98642.91;;;16.73;80.08
61573;BME280;47465;43.094;12.434;2023-06-26T02:45:51;98630.16;;;16.60;80.50
61573;BME280;47465;43.094;12.434;2023-06-26T02:48:17;98623.13;;;16.58;80.35
61573;BME280;47465;43.094;12.434;2023-06-26T02:50:44;98623.75;;;16.63;80.23
61573;BME280;47465;43.094;12.434;2023-06-26T02:53:12;98621.94;;;16.63;80.14
61573;BME280;47465;43.094;12.434;2023-06-26T02:55:38;98634.69;;;16.76;79.12
61573;BME280;47465;43.094;12.434;2023-06-26T02:58:04;98622.78;;;16.81;79.13
61573;BME280;47465;43.094;12.434;2023-06-26T03:00:30;98623.72;;;16.80;79.51
61573;BME280;47465;43.094;12.434;2023-06-26T03:02:56;98640.47;;;16.86;79.36
61573;BME280;47465;43.094;12.434;2023-06-26T03:05:23;98625.84;;;16.74;79.73
61573;BME280;47465;43.094;12.434;2023-06-26T03:07:51;98624.63;;;16.63;80.55
61573;BME280;47465;43.094;12.434;2023-06-26T03:10:16;98623.66;;;16.64;79.76
61573;BME280;47465;43.094;12.434;2023-06-26T03:12:43;98619.63;;;16.73;78.77
61573;BME280;47465;43.094;12.434;2023-06-26T03:15:09;98627.91;;;16.86;78.60
61573;BME280;47465;43.094;12.434;2023-06-26T03:17:37;98629.88;;;16.82;78.87
61573;BME280;47465;43.094;12.434;2023-06-26T03:20:03;98625.53;;;16.80;79.33
61573;BME280;47465;43.094;12.434;2023-06-26T03:22:32;98637.47;;;16.74;80.91
61573;BME280;47465;43.094;12.434;2023-06-26T03:25:01;98664.94;;;16.79;81.60
61573;BME280;47465;43.094;12.434;2023-06-26T03:27:27;98625.31;;;16.34;83.36
61573;BME280;47465;43.094;12.434;2023-06-26T03:29:53;98622.66;;;16.16;84.52
61573;BME280;47465;43.094;12.434;2023-06-26T03:32:19;98625.88;;;16.23;83.89
61573;BME280;47465;43.094;12.434;2023-06-26T03:34:45;98667.38;;;16.51;83.58
61573;BME280;47465;43.094;12.434;2023-06-26T03:37:12;98619.94;;;16.34;83.30
61573;BME280;47465;43.094;12.434;2023-06-26T03:39:37;98628.38;;;16.26;83.95
61573;BME280;47465;43.094;12.434;2023-06-26T03:42:06;98631.84;;;16.28;84.69
61573;BME280;47465;43.094;12.434;2023-06-26T03:44:33;98633.69;;;16.28;84.22
61573;BME280;47465;43.094;12.434;2023-06-26T03:46:59;98631.78;;;16.30;84.55
61573;BME280;47465;43.094;12.434;2023-06-26T03:49:25;98628.00;;;16.34;83.96
61573;BME280;47465;43.094;12.434;2023-06-26T03:51:51;98635.72;;;16.40;83.48
61573;BME280;47465;43.094;12.434;2023-06-26T03:54:17;98671.28;;;16.61;82.98
61573;BME280;47465;43.094;12.434;2023-06-26T03:56:43;98649.91;;;16.59;82.89
61573;BME280;47465;43.094;12.434;2023-06-26T03:59:11;98668.19;;;16.69;83.54
61573;BME280;47465;43.094;12.434;2023-06-26T04:01:38;98635.41;;;16.46;83.36
61573;BME280;47465;43.094;12.434;2023-06-26T04:04:04;98629.59;;;16.54;83.27
61573;BME280;47465;43.094;12.434;2023-06-26T04:06:30;98633.25;;;16.53;83.81
61573;BME280;47465;43.094;12.434;2023-06-26T04:08:57;98626.00;;;16.55;83.97
61573;BME280;47465;43.094;12.434;2023-06-26T04:11:23;98633.88;;;16.58;83.21
61573;BME280;47465;43.094;12.434;2023-06-26T04:13:50;98637.88;;;16.67;82.44
61573;BME280;47465;43.094;12.434;2023-06-26T04:16:17;98640.84;;;16.78;81.50
61573;BME280;47465;43.094;12.434;2023-06-26T04:18:43;98649.59;;;16.99;79.99
61573;BME280;47465;43.094;12.434;2023-06-26T04:21:10;98636.84;;;17.02;79.89
61573;BME280;47465;43.094;12.434;2023-06-26T04:23:37;98641.78;;;17.10;80.26
61573;BME280;47465;43.094;12.434;2023-06-26T04:26:06;98659.84;;;17.24;80.07
61573;BME280;47465;43.094;12.434;2023-06-26T04:28:32;98684.44;;;17.32;81.06
61573;BME280;47465;43.094;12.434;2023-06-26T04:30:59;98648.72;;;17.14;81.45
61573;BME280;47465;43.094;12.434;2023-06-26T04:33:27;98673.28;;;17.24;81.40
61573;BME280;47465;43.094;12.434;2023-06-26T04:35:53;98643.88;;;17.21;80.68
61573;BME280;47465;43.094;12.434;2023-06-26T04:38:19;98653.94;;;17.33;79.98
61573;BME280;47465;43.094;12.434;2023-06-26T04:40:47;98663.75;;;17.50;79.87
61573;BME280;47465;43.094;12.434;2023-06-26T04:43:13;98650.66;;;17.44;79.86
61573;BME280;47465;43.094;12.434;2023-06-26T04:45:39;98655.56;;;17.52;79.79
61573;BME280;47465;43.094;12.434;2023-06-26T04:48:05;98646.72;;;17.50;79.42
61573;BME280;47465;43.094;12.434;2023-06-26T04:50:33;98690.34;;;17.86;78.91
61573;BME280;47465;43.094;12.434;2023-06-26T04:52:59;98649.34;;;18.13;78.25
61573;BME280;47465;43.094;12.434;2023-06-26T04:55:25;98652.72;;;19.04;73.88
61573;BME280;47465;43.094;12.434;2023-06-26T04:57:51;98656.94;;;19.64;72.03
61573;BME280;47465;43.094;12.434;2023-06-26T05:00:18;98650.56;;;20.20;69.11
61573;BME280;47465;43.094;12.434;2023-06-26T05:02:44;98640.00;;;20.55;67.24
61573;BME280;47465;43.094;12.434;2023-06-26T05:05:10;98640.56;;;20.99;65.85
61573;BME280;47465;43.094;12.434;2023-06-26T05:07:38;98646.69;;;21.26;64.58
61573;BME280;47465;43.094;12.434;2023-06-26T05:10:05;98654.91;;;21.62;63.74
61573;BME280;47465;43.094;12.434;2023-06-26T05:12:31;98659.28;;;21.88;62.60
61573;BME280;47465;43.094;12.434;2023-06-26T05:14:57;98663.22;;;22.20;63.31
61573;BME280;47465;43.094;12.434;2023-06-26T05:17:23;98654.03;;;22.33;61.76
61573;BME280;47465;43.094;12.434;2023-06-26T05:19:49;98642.41;;;22.55;60.40
61573;BME280;47465;43.094;12.434;2023-06-26T05:22:16;98642.28;;;22.68;60.57
61573;BME280;47465;43.094;12.434;2023-06-26T05:24:46;98666.47;;;22.71;60.22
61573;BME280;47465;43.094;12.434;2023-06-26T05:27:13;98637.75;;;22.69;58.66
61573;BME280;47465;43.094;12.434;2023-06-26T05:29:47;98645.25;;;21.94;60.81
61573;BME280;47465;43.094;12.434;2023-06-26T05:32:15;98649.56;;;20.99;65.47
61573;BME280;47465;43.094;12.434;2023-06-26T05:34:44;98642.84;;;20.92;65.35
61573;BME280;47465;43.094;12.434;2023-06-26T05:37:14;98649.03;;;21.31;64.11
61573;BME280;47465;43.094;12.434;2023-06-26T05:39:49;98666.94;;;21.58;62.90
61573;BME280;47465;43.094;12.434;2023-06-26T05:42:16;98671.97;;;21.75;62.36
61573;BME280;47465;43.094;12.434;2023-06-26T05:44:42;98647.75;;;21.98;61.12
61573;BME280;47465;43.094;12.434;2023-06-26T05:47:08;98637.28;;;22.28;60.32
61573;BME280;47465;43.094;12.434;2023-06-26T05:49:37;98656.41;;;22.38;59.75
61573;BME280;47465;43.094;12.434;2023-06-26T05:52:03;98637.47;;;22.49;60.50
61573;BME280;47465;43.094;12.434;2023-06-26T05:54:30;98637.13;;;22.88;58.26
61573;BME280;47465;43.094;12.434;2023-06-26T05:57:03;98646.06;;;23.01;57.99
61573;BME280;47465;43.094;12.434;2023-06-26T05:59:37;98645.44;;;23.31;57.93
61573;BME280;47465;43.094;12.434;2023-06-26T06:02:08;98645.13;;;23.57;58.07
61573;BME280;47465;43.094;12.434;2023-06-26T06:04:34;98665.44;;;23.96;56.78
61573;BME280;47465;43.094;12.434;2023-06-26T06:07:00;98649.06;;;23.53;57.16
61573;BME280;47465;43.094;12.434;2023-06-26T06:09:26;98641.53;;;23.68;56.49
61573;BME280;47465;43.094;12.434;2023-06-26T06:11:52;98670.13;;;23.94;56.73
61573;BME280;47465;43.094;12.434;2023-06-26T06:14:20;98667.84;;;24.11;55.68
61573;BME280;47465;43.094;12.434;2023-06-26T06:16:46;98642.97;;;23.94;56.39
61573;BME280;47465;43.094;12.434;2023-06-26T06:19:12;98650.25;;;23.28;56.78
61573;BME280;47465;43.094;12.434;2023-06-26T06:21:39;98660.59;;;23.11;58.70
61573;BME280;47465;43.094;12.434;2023-06-26T06:24:05;98644.69;;;23.29;57.66
61573;BME280;47465;43.094;12.434;2023-06-26T06:26:32;98645.47;;;23.64;58.20
61573;BME280;47465;43.094;12.434;2023-06-26T06:28:58;98654.97;;;24.13;57.30
61573;BME280;47465;43.094;12.434;2023-06-26T06:31:25;98661.75;;;24.51;56.10
61573;BME280;47465;43.094;12.434;2023-06-26T06:33:53;98650.59;;;24.75;55.06
61573;BME280;47465;43.094;12.434;2023-06-26T06:36:19;98657.28;;;24.92;54.91
61573;BME280;47465;43.094;12.434;2023-06-26T06:38:45;98646.56;;;25.00;53.98
61573;BME280;47465;43.094;12.434;2023-06-26T06:41:11;98647.56;;;24.99;55.59
61573;BME280;47465;43.094;12.434;2023-06-26T06:43:41;98655.09;;;25.16;54.88
61573;BME280;47465;43.094;12.434;2023-06-26T06:46:07;98643.44;;;25.05;54.24
61573;BME280;47465;43.094;12.434;2023-06-26T06:48:35;98647.16;;;25.04;52.61
61573;BME280;47465;43.094;12.434;2023-06-26T06:51:01;98647.16;;;25.04;50.91
61573;BME280;47465;43.094;12.434;2023-06-26T06:53:27;98650.97;;;24.91;50.98
61573;BME280;47465;43.094;12.434;2023-06-26T06:55:53;98646.78;;;24.87;52.19
61573;BME280;47465;43.094;12.434;2023-06-26T06:58:19;98661.75;;;25.02;52.92
61573;BME280;47465;43.094;12.434;2023-06-26T07:00:46;98651.44;;;24.96;50.51
61573;BME280;47465;43.094;12.434;2023-06-26T07:03:12;98648.31;;;25.01;51.64
61573;BME280;47465;43.094;12.434;2023-06-26T07:05:41;98653.72;;;25.22;47.56
61573;BME280;47465;43.094;12.434;2023-06-26T07:08:08;98637.53;;;24.90;49.97
61573;BME280;47465;43.094;12.434;2023-06-26T07:10:34;98625.44;;;24.19;49.67
61573;BME280;47465;43.094;12.434;2023-06-26T07:13:00;98662.94;;;24.79;50.13
61573;BME280;47465;43.094;12.434;2023-06-26T07:15:26;98646.72;;;24.98;49.88
61573;BME280;47465;43.094;12.434;2023-06-26T07:17:52;98646.34;;;24.82;47.56
61573;BME280;47465;43.094;12.434;2023-06-26T07:20:18;98636.81;;;24.97;47.07
61573;BME280;47465;43.094;12.434;2023-06-26T07:22:45;98660.47;;;24.97;48.71
61573;BME280;47465;43.094;12.434;2023-06-26T07:25:13;98665.44;;;25.53;47.29
61573;BME280;47465;43.094;12.434;2023-06-26T07:27:39;98649.72;;;25.86;46.82
61573;BME280;47465;43.094;12.434;2023-06-26T07:30:07;98643.50;;;25.14;45.32
61573;BME280;47465;43.094;12.434;2023-06-26T07:32:36;98644.53;;;24.92;47.03
61573;BME280;47465;43.094;12.434;2023-06-26T07:35:03;98639.03;;;25.13;44.87
61573;BME280;47465;43.094;12.434;2023-06-26T07:37:29;98655.59;;;25.81;47.15
61573;BME280;47465;43.094;12.434;2023-06-26T07:39:57;98644.06;;;25.49;46.32
61573;BME280;47465;43.094;12.434;2023-06-26T07:42:23;98645.59;;;25.41;47.00
61573;BME280;47465;43.094;12.434;2023-06-26T07:44:49;98647.63;;;25.39;46.90
61573;BME280;47465;43.094;12.434;2023-06-26T07:47:15;98673.56;;;25.44;47.77
61573;BME280;47465;43.094;12.434;2023-06-26T07:49:41;98652.25;;;25.18;48.77
61573;BME280;47465;43.094;12.434;2023-06-26T07:52:07;98663.09;;;25.39;47.51
61573;BME280;47465;43.094;12.434;2023-06-26T07:54:35;98675.31;;;25.54;48.00
61573;BME280;47465;43.094;12.434;2023-06-26T07:57:04;98639.78;;;25.46;47.57
61573;BME280;47465;43.094;12.434;2023-06-26T07:59:33;98648.50;;;25.40;48.32
61573;BME280;47465;43.094;12.434;2023-06-26T08:01:59;98644.81;;;25.51;48.77
61573;BME280;47465;43.094;12.434;2023-06-26T08:04:27;98638.88;;;26.06;48.17
61573;BME280;47465;43.094;12.434;2023-06-26T08:06:55;98629.84;;;26.44;47.42
61573;BME280;47465;43.094;12.434;2023-06-26T08:09:22;98634.00;;;26.58;47.65
61573;BME280;47465;43.094;12.434;2023-06-26T08:11:49;98636.94;;;26.94;47.17
61573;BME280;47465;43.094;12.434;2023-06-26T08:14:16;98639.59;;;26.47;47.25
61573;BME280;47465;43.094;12.434;2023-06-26T08:16:44;98658.41;;;26.59;46.74
61573;BME280;47465;43.094;12.434;2023-06-26T08:19:10;98641.28;;;26.77;46.95
61573;BME280;47465;43.094;12.434;2023-06-26T08:21:36;98635.41;;;26.42;47.74
61573;BME280;47465;43.094;12.434;2023-06-26T08:24:02;98647.38;;;26.98;45.19
61573;BME280;47465;43.094;12.434;2023-06-26T08:26:28;98666.78;;;27.42;45.38
61573;BME280;47465;43.094;12.434;2023-06-26T08:28:54;98650.03;;;27.28;44.16
61573;BME280;47465;43.094;12.434;2023-06-26T08:31:21;98633.31;;;27.58;44.92
61573;BME280;47465;43.094;12.434;2023-06-26T08:33:47;98659.66;;;27.59;44.99
61573;BME280;47465;43.094;12.434;2023-06-26T08:36:13;98654.88;;;27.61;44.86
61573;BME280;47465;43.094;12.434;2023-06-26T08:38:39;98639.72;;;27.49;44.86
61573;BME280;47465;43.094;12.434;2023-06-26T08:41:06;98636.25;;;27.75;43.13
61573;BME280;47465;43.094;12.434;2023-06-26T08:43:32;98639.44;;;27.98;43.89
61573;BME280;47465;43.094;12.434;2023-06-26T08:45:59;98639.44;;;28.16;44.44
61573;BME280;47465;43.094;12.434;2023-06-26T08:48:26;98654.06;;;26.76;46.94
61573;BME280;47465;43.094;12.434;2023-06-26T08:50:55;98647.88;;;27.31;46.12
61573;BME280;47465;43.094;12.434;2023-06-26T08:53:26;98657.63;;;27.89;44.03
61573;BME280;47465;43.094;12.434;2023-06-26T08:55:57;98634.63;;;27.82;44.33
61573;BME280;47465;43.094;12.434;2023-06-26T08:58:24;98617.63;;;28.24;43.40
61573;BME280;47465;43.094;12.434;2023-06-26T09:00:50;98641.16;;;27.99;43.46
61573;BME280;47465;43.094;12.434;2023-06-26T09:03:17;98633.91;;;27.80;43.62
61573;BME280;47465;43.094;12.434;2023-06-26T09:05:44;98642.69;;;27.28;44.60
61573;BME280;47465;43.094;12.434;2023-06-26T09:08:10;98633.53;;;27.75;43.56
61573;BME280;47465;43.094;12.434;2023-06-26T09:10:37;98621.78;;;27.64;43.43
61573;BME280;47465;43.094;12.434;2023-06-26T09:13:03;98646.47;;;28.00;44.29
61573;BME280;47465;43.094;12.434;2023-06-26T09:15:37;98643.94;;;27.43;44.31
61573;BME280;47465;43.094;12.434;2023-06-26T09:18:05;98625.44;;;27.28;43.58
61573;BME280;47465;43.094;12.434;2023-06-26T09:20:31;98618.56;;;27.51;43.27
61573;BME280;47465;43.094;12.434;2023-06-26T09:23:00;98615.03;;;27.03;44.62
61573;BME280;47465;43.094;12.434;2023-06-26T09:25:27;98622.00;;;27.53;43.28
61573;BME280;47465;43.094;12.434;2023-06-26T09:27:53;98603.72;;;27.99;44.13
61573;BME280;47465;43.094;12.434;2023-06-26T09:30:20;98607.84;;;27.68;43.72
61573;BME280;47465;43.094;12.434;2023-06-26T09:32:49;98609.88;;;27.83;44.07
61573;BME280;47465;43.094;12.434;2023-06-26T09:35:16;98597.09;;;28.20;41.86
61573;BME280;47465;43.094;12.434;2023-06-26T09:37:42;98597.03;;;28.12;43.22
61573;BME280;47465;43.094;12.434;2023-06-26T09:40:11;98606.28;;;28.55;42.49
61573;BME280;47465;43.094;12.434;2023-06-26T09:42:37;98615.34;;;28.37;43.43
61573;BME280;47465;43.094;12.434;2023-06-26T09:45:03;98587.16;;;28.19;42.36
61573;BME280;47465;43.094;12.434;2023-06-26T09:47:30;98587.94;;;28.29;39.35
61573;BME280;47465;43.094;12.434;2023-06-26T09:49:57;98575.53;;;28.43;41.65
61573;BME280;47465;43.094;12.434;2023-06-26T09:52:26;98589.88;;;28.81;39.11
61573;BME280;47465;43.094;12.434;2023-06-26T09:55:07;98588.72;;;28.92;38.62
61573;BME280;47465;43.094;12.434;2023-06-26T09:57:34;98596.44;;;29.22;38.86
61573;BME280;47465;43.094;12.434;2023-06-26T10:00:01;98591.34;;;28.67;39.10
61573;BME280;47465;43.094;12.434;2023-06-26T10:02:28;98597.25;;;28.88;38.87
61573;BME280;47465;43.094;12.434;2023-06-26T10:04:54;98605.38;;;28.72;39.77
61573;BME280;47465;43.094;12.434;2023-06-26T10:07:20;98608.06;;;28.64;39.40
61573;BME280;47465;43.094;12.434;2023-06-26T10:09:48;98613.84;;;28.87;37.70
61573;BME280;47465;43.094;12.434;2023-06-26T10:12:19;98594.78;;;28.51;39.48
61573;BME280;47465;43.094;12.434;2023-06-26T10:14:47;98611.34;;;28.67;37.52
61573;BME280;47465;43.094;12.434;2023-06-26T10:17:16;98605.47;;;28.62;38.35
61573;BME280;47465;43.094;12.434;2023-06-26T10:19:45;98591.34;;;28.67;38.16
61573;BME280;47465;43.094;12.434;2023-06-26T10:22:15;98595.69;;;28.86;37.23
61573;BME280;47465;43.094;12.434;2023-06-26T10:24:41;98607.56;;;28.95;38.32
61573;BME280;47465;43.094;12.434;2023-06-26T10:27:15;98595.75;;;28.94;39.36
61573;BME280;47465;43.094;12.434;2023-06-26T10:29:43;98601.50;;;28.83;37.98
61573;BME280;47465;43.094;12.434;2023-06-26T10:32:12;98577.97;;;28.98;36.86
61573;BME280;47465;43.094;12.434;2023-06-26T10:34:38;98586.47;;;29.13;38.84
61573;BME280;47465;43.094;12.434;2023-06-26T10:37:05;98599.13;;;29.57;37.80
61573;BME280;47465;43.094;12.434;2023-06-26T10:39:47;98593.25;;;29.43;38.05
61573;BME280;47465;43.094;12.434;2023-06-26T10:42:15;98599.97;;;29.15;38.70
61573;BME280;47465;43.094;12.434;2023-06-26T10:44:42;98587.97;;;29.50;38.15
61573;BME280;47465;43.094;12.434;2023-06-26T10:47:11;98583.88;;;29.12;38.38
61573;BME280;47465;43.094;12.434;2023-06-26T10:49:38;98576.09;;;29.33;37.48
61573;BME280;47465;43.094;12.434;2023-06-26T10:52:05;98579.38;;;29.02;38.88
61573;BME280;47465;43.094;12.434;2023-06-26T10:54:32;98586.97;;;28.82;40.82
61573;BME280;47465;43.094;12.434;2023-06-26T10:56:59;98590.84;;;29.32;39.13
61573;BME280;47465;43.094;12.434;2023-06-26T10:59:26;98578.91;;;29.49;37.37
61573;BME280;47465;43.094;12.434;2023-06-26T11:01:56;98579.84;;;29.83;37.45
61573;BME280;47465;43.094;12.434;2023-06-26T11:04:38;98580.53;;;29.85;36.28
61573;BME280;47465;43.094;12.434;2023-06-26T11:07:15;98592.72;;;30.07;37.01
61573;BME280;47465;43.094;12.434;2023-06-26T11:09:57;98585.34;;;30.07;36.97
61573;BME280;47465;43.094;12.434;2023-06-26T11:12:39;98592.91;;;30.22;36.05
61573;BME280;47465;43.094;12.434;2023-06-26T11:15:09;98580.00;;;29.73;37.98
61573;BME280;47465;43.094;12.434;2023-06-26T11:17:35;98578.22;;;29.56;38.32
61573;BME280;47465;43.094;12.434;2023-06-26T11:20:05;98569.69;;;29.67;38.17
61573;BME280;47465;43.094;12.434;2023-06-26T11:22:34;98566.06;;;29.66;38.54
61573;BME280;47465;43.094;12.434;2023-06-26T11:25:01;98585.22;;;29.42;38.74
61573;BME280;47465;43.094;12.434;2023-06-26T11:27:31;98593.66;;;28.88;38.12
61573;BME280;47465;43.094;12.434;2023-06-26T11:29:57;98596.22;;;29.16;39.06
61573;BME280;47465;43.094;12.434;2023-06-26T11:32:26;98576.25;;;29.23;38.51
61573;BME280;47465;43.094;12.434;2023-06-26T11:34:54;98571.03;;;29.55;38.48
61573;BME280;47465;43.094;12.434;2023-06-26T11:37:22;98584.00;;;29.95;37.90
61573;BME280;47465;43.094;12.434;2023-06-26T11:39:48;98567.16;;;29.82;38.19
61573;BME280;47465;43.094;12.434;2023-06-26T11:42:14;98590.75;;;29.58;37.72
61573;BME280;47465;43.094;12.434;2023-06-26T11:44:41;98586.22;;;29.92;38.38
61573;BME280;47465;43.094;12.434;2023-06-26T11:47:12;98574.88;;;29.95;37.49
61573;BME280;47465;43.094;12.434;2023-06-26T11:49:38;98581.25;;;30.12;36.79
61573;BME280;47465;43.094;12.434;2023-06-26T11:52:10;98601.13;;;30.22;36.87
61573;BME280;47465;43.094;12.434;2023-06-26T11:54:37;98577.13;;;30.16;36.01
61573;BME280;47465;43.094;12.434;2023-06-26T11:57:04;98580.91;;;30.23;36.36
61573;BME280;47465;43.094;12.434;2023-06-26T11:59:34;98590.16;;;30.22;37.58
61573;BME280;47465;43.094;12.434;2023-06-26T12:02:04;98583.47;;;30.16;37.54
61573;BME280;47465;43.094;12.434;2023-06-26T12:04:31;98588.97;;;30.16;37.92
61573;BME280;47465;43.094;12.434;2023-06-26T12:06:57;98594.50;;;30.41;37.33
61573;BME280;47465;43.094;12.434;2023-06-26T12:09:23;98597.56;;;30.62;37.75
61573;BME280;47465;43.094;12.434;2023-06-26T12:11:54;98569.06;;;30.14;37.75
61573;BME280;47465;43.094;12.434;2023-06-26T12:14:21;98592.19;;;30.03;37.47
61573;BME280;47465;43.094;12.434;2023-06-26T12:16:48;98598.91;;;30.25;40.03
61573;BME280;47465;43.094;12.434;2023-06-26T12:19:14;98567.19;;;30.23;38.15
61573;BME280;47465;43.094;12.434;2023-06-26T12:21:50;98576.13;;;30.49;37.75
61573;BME280;47465;43.094;12.434;2023-06-26T12:24:20;98561.72;;;30.47;37.87
61573;BME280;47465;43.094;12.434;2023-06-26T12:26:50;98570.66;;;30.33;37.55
61573;BME280;47465;43.094;12.434;2023-06-26T12:29:19;98557.41;;;29.79;39.42
61573;BME280;47465;43.094;12.434;2023-06-26T12:31:49;98572.03;;;30.29;38.98
61573;BME280;47465;43.094;12.434;2023-06-26T12:34:18;98583.84;;;30.62;36.22
61573;BME280;47465;43.094;12.434;2023-06-26T12:36:46;98587.75;;;29.94;38.19
61573;BME280;47465;43.094;12.434;2023-06-26T12:39:15;98563.75;;;30.21;34.48
61573;BME280;47465;43.094;12.434;2023-06-26T12:41:46;98582.44;;;30.01;36.02
61573;BME280;47465;43.094;12.434;2023-06-26T12:44:21;98574.75;;;30.37;36.45
61573;BME280;47465;43.094;12.434;2023-06-26T12:46:48;98556.94;;;30.49;36.88
61573;BME280;47465;43.094;12.434;2023-06-26T12:49:15;98557.00;;;30.81;36.02
61573;BME280;47465;43.094;12.434;2023-06-26T12:51:41;98551.75;;;30.71;35.19